Time;durP1;ratioP1;P1;durP2;ratioP2;P2;SDS_P1;SDS_P2;PMS_P1;PMS_P2;Temp;Humidity;BMP_temperature;BMP_pressure;BME280_temperature;BME280_humidity;BME280_pressure;Samples;Min_cycle;Max_cycle;Signal;HPM_P1;HPM_P2
2023/08/23 00:02:18;;;;;;;0.20;0.20;;;;;;;33.12;48.46;100230.41;7386591;19;20018;-80
2023/08/23 00:04:44;;;;;;;0.20;0.20;;;;;;;28.54;58.99;100231.38;7387856;19;20473;-81
2023/08/23 00:07:11;;;;;;;0.30;0.20;;;;;;;27.85;62.77;100235.63;7387017;19;20011;-80
2023/08/23 00:09:37;;;;;;;3.20;0.22;;;;;;;32.98;54.76;100229.47;7386259;19;20036;-81
2023/08/23 00:12:03;;;;;;;0.52;0.13;;;;;;;34.50;42.50;100225.81;7393711;19;20035;-80
2023/08/23 00:14:29;;;;;;;0.68;0.30;;;;;;;35.97;45.66;100216.59;7400109;19;20025;-80
2023/08/23 00:16:56;;;;;;;3.15;0.45;;;;;;;35.67;39.38;100215.75;7395659;19;20139;-81
2023/08/23 00:19:22;;;;;;;0.57;0.32;;;;;;;28.52;54.66;100225.50;7395327;19;20021;-80
2023/08/23 00:21:48;;;;;;;0.90;0.45;;;;;;;29.40;57.11;100216.03;7394869;19;20349;-80
2023/08/23 00:24:14;;;;;;;0.30;0.20;;;;;;;31.50;46.34;100215.19;7400328;19;20018;-80
2023/08/23 00:26:40;;;;;;;0.20;0.20;;;;;;;27.91;56.67;100221.03;7394580;19;20010;-80
2023/08/23 00:29:06;;;;;;;8.30;0.57;;;;;;;37.06;41.86;100208.22;7393599;19;20011;-80
2023/08/23 00:31:32;;;;;;;0.10;0.10;;;;;;;39.72;35.71;100208.50;7395105;19;20026;-80
2023/08/23 00:33:59;;;;;;;0.20;0.20;;;;;;;40.02;33.91;100209.63;7397988;19;20015;-81
2023/08/23 00:36:25;;;;;;;0.10;0.10;;;;;;;40.09;33.12;100205.47;7395184;19;20018;-80
2023/08/23 00:38:51;;;;;;;0.17;0.17;;;;;;;33.02;40.43;100216.09;7393658;19;20018;-80
2023/08/23 00:41:17;;;;;;;0.20;0.20;;;;;;;30.96;45.26;100209.94;7393187;19;20025;-80
2023/08/23 00:43:43;;;;;;;0.40;0.25;;;;;;;29.90;47.81;100211.38;7393817;19;20037;-80
2023/08/23 00:46:10;;;;;;;0.30;0.10;;;;;;;29.45;49.41;100195.69;7394345;19;20026;-80
2023/08/23 00:48:36;;;;;;;0.25;0.17;;;;;;;29.25;50.32;100194.09;7395399;19;20029;-80
2023/08/23 00:51:03;;;;;;;0.63;0.15;;;;;;;29.00;51.09;100197.13;7394375;19;20018;-81
2023/08/23 00:53:30;;;;;;;0.70;0.50;;;;;;;28.29;52.80;100199.25;7396371;19;20037;-80
2023/08/23 00:55:56;;;;;;;0.68;0.25;;;;;;;28.07;53.70;100205.25;7393922;19;20357;-80
2023/08/23 00:58:22;;;;;;;0.57;0.38;;;;;;;27.51;55.72;100196.22;7395821;19;20030;-80
2023/08/23 01:00:49;;;;;;;0.13;0.03;;;;;;;27.16;57.96;100205.28;7395707;19;20048;-80
2023/08/23 01:03:15;;;;;;;1.13;0.17;;;;;;;26.66;59.82;100202.31;7395722;19;20496;-81
2023/08/23 01:05:41;;;;;;;0.82;0.22;;;;;;;26.39;61.75;100207.03;7393858;19;20018;-80
2023/08/23 01:08:26;;;;;;;0.30;0.28;;;;;;;26.44;62.92;100211.78;7393086;19;20018;-80
2023/08/23 01:11:10;;;;;;;0.85;0.50;;;;;;;26.43;64.74;100201.66;7394982;19;20024;-80
2023/08/23 01:13:46;;;;;;;0.35;0.15;;;;;;;26.37;64.54;100194.66;7395898;19;20014;-81
2023/08/23 01:16:14;;;;;;;0.20;0.13;;;;;;;26.43;64.61;100209.47;7394415;19;20023;-80
2023/08/23 01:18:42;;;;;;;0.30;0.30;;;;;;;26.34;65.29;100210.84;7393745;19;20010;-80
2023/08/23 01:21:11;;;;;;;0.10;0.10;;;;;;;26.21;65.30;100222.50;7393178;19;20018;-80
2023/08/23 01:23:38;;;;;;;0.10;0.10;;;;;;;26.10;66.55;100222.91;7395770;19;20019;-80
2023/08/23 01:26:04;;;;;;;2.58;0.63;;;;;;;26.14;66.56;100223.31;7394421;19;20027;-81
2023/08/23 01:28:30;;;;;;;0.10;0.00;;;;;;;26.38;66.04;100219.78;7393213;19;20063;-81
2023/08/23 01:30:59;;;;;;;0.40;0.30;;;;;;;27.17;64.10;100230.44;7391911;19;20010;-81
2023/08/23 01:33:30;;;;;;;0.20;0.20;;;;;;;26.87;64.19;100228.53;7394070;19;20136;-80
2023/08/23 01:36:25;;;;;;;0.22;0.22;;;;;;;26.77;63.87;100210.47;7394821;19;20018;-80
2023/08/23 01:38:54;;;;;;;0.60;0.25;;;;;;;26.71;63.84;100206.28;7392292;19;20035;-80
2023/08/23 01:41:21;;;;;;;0.13;0.13;;;;;;;26.59;64.22;100211.69;7392667;19;20021;-81
2023/08/23 01:43:47;;;;;;;0.20;0.20;;;;;;;26.65;63.83;100217.94;7393332;19;20014;-80
2023/08/23 01:46:14;;;;;;;0.10;0.10;;;;;;;26.75;62.45;100218.09;7392676;19;20030;-80
2023/08/23 01:48:40;;;;;;;2.17;0.25;;;;;;;26.31;63.86;100215.63;7392986;19;20035;-80
2023/08/23 01:51:06;;;;;;;0.82;0.28;;;;;;;26.17;65.02;100210.72;7392512;19;20046;-80
2023/08/23 01:53:32;;;;;;;2.72;1.15;;;;;;;26.46;63.69;100214.81;7394902;19;20039;-80
2023/08/23 01:55:59;;;;;;;2.28;0.52;;;;;;;26.48;63.86;100223.56;7393408;19;20022;-80
2023/08/23 01:58:26;;;;;;;1.88;0.60;;;;;;;26.43;64.27;100210.25;7391810;19;20384;-80
2023/08/23 02:00:53;;;;;;;0.80;0.50;;;;;;;26.47;64.62;100216.31;7392059;19;20022;-80
2023/08/23 02:03:19;;;;;;;0.17;0.17;;;;;;;26.45;64.65;100213.28;7391758;19;20022;-81
2023/08/23 02:05:46;;;;;;;4.40;0.47;;;;;;;26.40;64.61;100205.69;7387491;19;20026;-80
2023/08/23 02:08:14;;;;;;;0.17;0.17;;;;;;;26.59;63.61;100211.69;7388499;19;20022;-79
2023/08/23 02:10:41;;;;;;;0.20;0.20;;;;;;;26.47;63.87;100216.31;7387267;19;20052;-80
2023/08/23 02:13:07;;;;;;;0.10;0.10;;;;;;;26.50;63.78;100208.69;7390934;19;20015;-80
2023/08/23 02:15:34;;;;;;;5.00;1.00;;;;;;;26.50;63.52;100214.41;7387467;19;20078;-80
2023/08/23 02:18:00;;;;;;;2.58;0.30;;;;;;;26.48;63.80;100217.84;7387409;19;20502;-81
2023/08/23 02:20:26;;;;;;;1.17;0.20;;;;;;;26.65;63.26;100209.38;7393509;19;20034;-80
2023/08/23 02:22:54;;;;;;;0.52;0.20;;;;;;;26.51;63.72;100210.97;7393443;19;20610;-81
2023/08/23 02:25:20;;;;;;;0.20;0.20;;;;;;;26.54;64.46;100217.63;7391472;19;20014;-80
2023/08/23 02:27:46;;;;;;;1.08;0.22;;;;;;;26.46;65.23;100216.91;7392167;19;20115;-80
2023/08/23 02:30:13;;;;;;;0.63;0.63;;;;;;;26.59;66.08;100223.13;7389311;19;20017;-81
2023/08/23 02:32:39;;;;;;;0.20;0.20;;;;;;;26.70;65.90;100222.69;7392338;19;20022;-81
2023/08/23 02:35:06;;;;;;;0.35;0.35;;;;;;;26.90;65.52;100227.34;7391610;19;20427;-80
2023/08/23 02:37:32;;;;;;;0.30;0.08;;;;;;;26.96;65.19;100210.72;7390868;19;20014;-80
2023/08/23 02:39:58;;;;;;;1.27;0.47;;;;;;;26.95;65.31;100226.38;7390808;19;20014;-80
2023/08/23 02:42:24;;;;;;;1.30;0.57;;;;;;;26.91;65.27;100213.81;7390917;19;20019;-80
2023/08/23 02:44:50;;;;;;;0.10;0.10;;;;;;;26.83;65.78;100222.44;7390708;19;20022;-80
2023/08/23 02:47:16;;;;;;;0.55;0.30;;;;;;;26.85;65.98;100213.31;7392895;19;20479;-80
2023/08/23 02:49:42;;;;;;;0.47;0.10;;;;;;;27.80;62.61;100207.97;7392977;19;20111;-80
2023/08/23 02:52:09;;;;;;;0.68;0.10;;;;;;;27.26;64.10;100206.16;7390191;19;20042;-80
2023/08/23 02:54:35;;;;;;;1.05;0.30;;;;;;;27.96;63.28;100220.78;7390613;19;20022;-80
2023/08/23 02:57:01;;;;;;;0.82;0.40;;;;;;;26.98;64.16;100221.59;7390311;19;20536;-80
2023/08/23 02:59:27;;;;;;;0.85;0.32;;;;;;;26.89;63.95;100214.41;7389439;19;20018;-80
2023/08/23 03:01:54;;;;;;;1.20;0.30;;;;;;;26.76;64.84;100208.97;7388374;19;20016;-80
2023/08/23 03:04:20;;;;;;;0.15;0.15;;;;;;;27.32;64.63;100210.28;7392947;19;20038;-80
2023/08/23 03:06:46;;;;;;;0.50;0.17;;;;;;;27.61;60.77;100213.50;7390366;19;20019;-80
2023/08/23 03:09:13;;;;;;;2.05;0.35;;;;;;;26.99;63.75;100206.72;7388750;19;20338;-80
2023/08/23 03:11:39;;;;;;;0.30;0.30;;;;;;;26.07;67.42;100198.38;7390214;19;20018;-80
2023/08/23 03:14:06;;;;;;;0.47;0.32;;;;;;;25.96;68.58;100201.63;7393487;19;20022;-80
2023/08/23 03:16:33;;;;;;;0.10;0.08;;;;;;;25.90;69.85;100198.22;7390164;19;20026;-80
2023/08/23 03:18:59;;;;;;;0.40;0.30;;;;;;;25.77;70.45;100199.22;7390063;19;20086;-80
2023/08/23 03:21:27;;;;;;;0.32;0.10;;;;;;;27.02;66.77;100194.13;7388398;19;20011;-80
2023/08/23 03:23:53;;;;;;;1.10;0.20;;;;;;;26.25;68.16;100205.75;7392381;19;20022;-81
2023/08/23 03:26:20;;;;;;;0.30;0.00;;;;;;;26.81;65.44;100202.25;7389385;19;20202;-80
2023/08/23 03:28:47;;;;;;;0.90;0.30;;;;;;;27.46;64.19;100196.47;7389090;19;20037;-80
2023/08/23 03:31:13;;;;;;;0.10;0.10;;;;;;;28.89;62.95;100185.47;7389356;19;20015;-80
2023/08/23 03:33:40;;;;;;;1.15;0.50;;;;;;;27.27;63.38;100199.06;7391526;19;20415;-80
2023/08/23 03:36:06;;;;;;;0.20;0.10;;;;;;;30.21;54.57;100185.66;7388720;19;20015;-80
2023/08/23 03:38:32;;;;;;;9.13;0.47;;;;;;;36.16;43.53;100178.41;7389229;19;20022;-80
2023/08/23 03:40:58;;;;;;;0.25;0.25;;;;;;;34.30;45.38;100184.91;7389412;19;20033;-80
2023/08/23 03:43:24;;;;;;;0.22;0.10;;;;;;;35.12;43.83;100188.88;7390123;19;20018;-80
2023/08/23 03:45:52;;;;;;;0.25;0.25;;;;;;;33.97;42.21;100187.28;7391868;19;20014;-80
2023/08/23 03:48:18;;;;;;;5.93;0.47;;;;;;;27.90;55.73;100185.16;7396202;19;20034;-80
2023/08/23 03:50:45;;;;;;;0.20;0.20;;;;;;;27.03;60.79;100186.28;7400723;19;20543;-80
2023/08/23 03:53:11;;;;;;;0.70;0.35;;;;;;;26.78;63.42;100177.72;7397906;19;20038;-80
2023/08/23 03:55:38;;;;;;;0.77;0.25;;;;;;;26.81;63.76;100182.25;7395687;19;20018;-80
2023/08/23 03:58:05;;;;;;;0.50;0.30;;;;;;;26.73;64.93;100175.81;7396091;19;20467;-80
2023/08/23 04:00:32;;;;;;;0.40;0.25;;;;;;;26.56;65.96;100172.09;7395573;19;20401;-81
2023/08/23 04:03:00;;;;;;;0.85;0.55;;;;;;;26.53;67.21;100159.72;7397178;19;20023;-80
2023/08/23 04:05:26;;;;;;;3.20;0.43;;;;;;;26.69;66.78;100163.25;7394854;19;20388;-80
2023/08/23 04:07:52;;;;;;;0.32;0.20;;;;;;;26.54;67.65;100164.09;7394671;19;20022;-80
2023/08/23 04:10:18;;;;;;;4.95;0.55;;;;;;;26.61;67.04;100163.31;7394668;19;20034;-81
2023/08/23 04:12:44;;;;;;;0.20;0.15;;;;;;;26.41;68.01;100161.50;7396685;19;20014;-80
2023/08/23 04:15:11;;;;;;;0.35;0.35;;;;;;;26.29;68.46;100157.59;7395708;19;20496;-80
2023/08/23 04:17:37;;;;;;;0.38;0.38;;;;;;;26.37;68.98;100161.16;7395368;19;20042;-80
2023/08/23 04:20:04;;;;;;;0.10;0.10;;;;;;;26.37;69.21;100161.16;7397875;19;20073;-80
2023/08/23 04:22:30;;;;;;;1.67;0.40;;;;;;;26.39;68.86;100169.13;7396924;19;20015;-80
2023/08/23 04:24:57;;;;;;;0.17;0.10;;;;;;;26.37;69.41;100169.72;7396618;19;20402;-80
2023/08/23 04:27:23;;;;;;;0.65;0.32;;;;;;;26.33;70.14;100169.34;7395595;19;20006;-80
2023/08/23 04:29:49;;;;;;;0.68;0.30;;;;;;;26.41;70.00;100175.78;7393638;19;20051;-80
2023/08/23 04:32:15;;;;;;;0.20;0.10;;;;;;;26.34;70.43;100179.44;7394109;19;20010;-80
2023/08/23 04:34:42;;;;;;;0.43;0.10;;;;;;;26.59;69.85;100183.13;7397150;19;20086;-80
2023/08/23 04:37:08;;;;;;;0.20;0.20;;;;;;;26.77;69.37;100181.91;7396612;19;20066;-80
2023/08/23 04:39:34;;;;;;;0.10;0.10;;;;;;;26.82;69.21;100183.78;7393092;19;20010;-80
2023/08/23 04:42:01;;;;;;;0.75;0.45;;;;;;;26.78;69.54;100177.72;7394344;19;20019;-80
2023/08/23 04:44:29;;;;;;;0.20;0.20;;;;;;;26.87;69.98;100179.94;7398327;19;20508;-80
2023/08/23 04:46:57;;;;;;;1.98;0.60;;;;;;;27.00;69.15;100176.81;7393905;19;20018;-80
2023/08/23 04:49:25;;;;;;;0.30;0.30;;;;;;;26.74;70.27;100182.31;7394890;19;20467;-80
2023/08/23 04:51:51;;;;;;;0.43;0.40;;;;;;;26.60;71.41;100183.88;7394705;19;20472;-80
2023/08/23 04:54:17;;;;;;;1.27;0.13;;;;;;;26.57;71.31;100185.81;7398804;19;20018;-80
2023/08/23 04:56:44;;;;;;;0.93;0.15;;;;;;;26.44;72.08;100177.50;7393140;19;20018;-80
2023/08/23 04:59:10;;;;;;;1.55;0.85;;;;;;;26.52;71.87;100174.59;7392858;19;20025;-80
2023/08/23 05:01:36;;;;;;;0.32;0.32;;;;;;;26.89;70.05;100179.34;7393340;19;20018;-80
2023/08/23 05:04:03;;;;;;;0.55;0.30;;;;;;;26.64;70.66;100179.28;7394683;19;20391;-81
2023/08/23 05:06:29;;;;;;;0.28;0.17;;;;;;;26.78;70.26;100172.00;7393767;19;20486;-80
2023/08/23 05:08:56;;;;;;;0.85;0.10;;;;;;;27.15;69.27;100178.00;7392166;19;20015;-80
2023/08/23 05:11:24;;;;;;;0.10;0.10;;;;;;;27.36;67.32;100184.16;7394550;19;20014;-80
2023/08/23 05:13:51;;;;;;;1.85;0.13;;;;;;;27.18;68.27;100179.72;7396653;19;20014;-81
2023/08/23 05:16:18;;;;;;;0.10;0.10;;;;;;;27.01;68.78;100184.03;7393125;19;20476;-80
2023/08/23 05:18:45;;;;;;;1.00;0.20;;;;;;;27.14;69.32;100182.22;7393000;19;20352;-80
2023/08/23 05:21:11;;;;;;;1.55;0.55;;;;;;;27.32;68.65;100180.91;7394005;19;20018;-80
2023/08/23 05:23:37;;;;;;;0.30;0.20;;;;;;;27.19;68.83;100190.56;7394675;19;20011;-80
2023/08/23 05:26:03;;;;;;;0.13;0.10;;;;;;;26.84;70.18;100197.47;7395310;19;20018;-80
2023/08/23 05:28:30;;;;;;;1.80;0.20;;;;;;;27.10;69.70;100204.72;7392445;19;20026;-80
2023/08/23 05:30:56;;;;;;;0.25;0.15;;;;;;;26.95;70.42;100209.22;7392735;19;20031;-80
2023/08/23 05:33:26;;;;;;;0.15;0.15;;;;;;;27.12;69.86;100205.66;7394523;19;20011;-80
2023/08/23 05:35:52;;;;;;;0.15;0.15;;;;;;;27.42;68.98;100214.03;7392966;19;20500;-80
2023/08/23 05:38:20;;;;;;;0.52;0.52;;;;;;;27.34;69.11;100210.47;7393858;19;20532;-80
2023/08/23 05:40:47;;;;;;;0.75;0.22;;;;;;;27.40;69.72;100195.94;7393348;19;20582;-80
2023/08/23 05:43:14;;;;;;;0.32;0.30;;;;;;;27.30;70.41;100209.34;7393534;19;20407;-81
2023/08/23 05:45:40;;;;;;;0.22;0.15;;;;;;;27.19;71.64;100209.81;7392531;19;20470;-80
2023/08/23 05:48:06;;;;;;;0.38;0.38;;;;;;;27.21;71.67;100212.84;7392373;19;20112;-80
2023/08/23 05:50:33;;;;;;;0.40;0.20;;;;;;;27.12;71.34;100205.66;7395902;19;20460;-79
2023/08/23 05:52:59;;;;;;;0.63;0.32;;;;;;;27.20;70.99;100205.63;7393862;19;20479;-79
2023/08/23 05:55:25;;;;;;;0.60;0.28;;;;;;;27.21;71.30;100195.69;7392188;19;20389;-79
2023/08/23 05:57:51;;;;;;;0.40;0.30;;;;;;;27.69;70.08;100206.38;7394211;19;20010;-80
2023/08/23 06:00:18;;;;;;;1.33;0.45;;;;;;;27.65;69.72;100205.25;7392891;19;20006;-79
2023/08/23 06:02:44;;;;;;;1.85;0.20;;;;;;;27.58;70.43;100211.81;7393040;19;20025;-79
2023/08/23 06:05:13;;;;;;;0.35;0.10;;;;;;;27.49;71.32;100209.59;7391954;19;20535;-79
2023/08/23 06:07:41;;;;;;;0.40;0.30;;;;;;;27.40;71.18;100215.97;7390396;19;20023;-79
2023/08/23 06:10:09;;;;;;;2.33;0.35;;;;;;;26.49;75.65;100233.63;7390642;19;20016;-79
2023/08/23 06:12:35;;;;;;;0.25;0.20;;;;;;;26.63;76.42;100223.50;7392227;19;20022;-80
2023/08/23 06:15:01;;;;;;;0.32;0.30;;;;;;;26.85;75.81;100222.63;7392895;19;20471;-79
2023/08/23 06:17:31;;;;;;;0.77;0.17;;;;;;;26.61;76.52;100228.25;7388818;19;20014;-79
2023/08/23 06:19:57;;;;;;;0.13;0.13;;;;;;;27.06;76.98;100230.88;7391696;19;20018;-79
2023/08/23 06:22:23;;;;;;;4.85;0.30;;;;;;;27.63;73.57;100225.13;7393573;19;20014;-79
2023/08/23 06:24:49;;;;;;;0.10;0.10;;;;;;;27.58;73.02;100228.97;7393412;19;20368;-79
2023/08/23 06:27:15;;;;;;;0.20;0.10;;;;;;;27.93;72.06;100213.38;7392113;19;20077;-80
2023/08/23 06:29:41;;;;;;;0.55;0.30;;;;;;;27.67;73.11;100214.03;7392070;19;20011;-80
2023/08/23 06:32:07;;;;;;;1.25;0.40;;;;;;;28.19;72.31;100212.75;7391190;19;20015;-79
2023/08/23 06:34:34;;;;;;;0.77;0.30;;;;;;;28.40;71.66;100207.31;7397265;19;20428;-80
2023/08/23 06:37:01;;;;;;;1.33;0.38;;;;;;;27.96;72.75;100217.19;7392732;19;20050;-79
2023/08/23 06:39:27;;;;;;;2.55;0.20;;;;;;;27.70;75.28;100216.47;7389555;19;20045;-79
2023/08/23 06:41:53;;;;;;;0.68;0.17;;;;;;;31.28;67.75;100217.22;7390548;19;20010;-79
2023/08/23 06:44:19;;;;;;;0.10;0.10;;;;;;;29.86;64.75;100217.56;7394259;19;20022;-79
2023/08/23 06:46:45;;;;;;;0.55;0.10;;;;;;;28.93;68.15;100229.56;7392647;19;20022;-80
2023/08/23 06:49:12;;;;;;;0.40;0.40;;;;;;;28.65;70.25;100233.03;7391217;19;20030;-80
2023/08/23 06:51:38;;;;;;;0.38;0.10;;;;;;;28.26;72.19;100229.06;7391829;19;20356;-79
2023/08/23 06:54:04;;;;;;;0.98;0.35;;;;;;;28.71;70.87;100242.09;7395615;19;20014;-79
2023/08/23 06:56:30;;;;;;;10.23;0.43;;;;;;;28.22;73.09;100240.19;7392173;19;20395;-79
2023/08/23 06:58:56;;;;;;;0.30;0.17;;;;;;;28.09;73.64;100237.66;7390200;19;20031;-79
2023/08/23 07:01:23;;;;;;;6.35;0.65;;;;;;;27.45;76.70;100235.00;7390792;19;20385;-78
2023/08/23 07:03:49;;;;;;;2.92;0.50;;;;;;;28.74;75.88;100225.84;7392039;19;20029;-79
2023/08/23 07:06:15;;;;;;;1.00;0.63;;;;;;;28.36;74.39;100238.50;7391495;19;20078;-79
2023/08/23 07:08:42;;;;;;;8.57;1.55;;;;;;;28.25;74.99;100250.47;7390326;19;20014;-79
2023/08/23 07:11:09;;;;;;;5.25;1.38;;;;;;;28.94;74.92;100258.97;7392773;19;20024;-79
2023/08/23 07:13:36;;;;;;;5.50;2.15;;;;;;;30.25;67.00;100258.56;7393005;19;20002;-79
2023/08/23 07:16:03;;;;;;;4.38;1.50;;;;;;;28.67;72.13;100258.22;7393491;19;20046;-79
2023/08/23 07:18:29;;;;;;;6.80;2.10;;;;;;;28.19;75.50;100257.81;7391044;19;20018;-79
2023/08/23 07:20:56;;;;;;;6.15;2.40;;;;;;;28.65;74.27;100255.19;7401743;19;20029;-79
2023/08/23 07:23:24;;;;;;;5.07;2.53;;;;;;;28.22;77.31;100245.19;7397913;19;20011;-79
2023/08/23 07:25:50;;;;;;;9.02;3.45;;;;;;;28.40;76.39;100235.22;7401382;19;20018;-79
2023/08/23 07:28:16;;;;;;;12.82;4.28;;;;;;;28.23;78.44;100238.84;7398576;19;20013;-80
2023/08/23 07:30:47;;;;;;;16.45;4.20;;;;;;;28.45;79.04;100234.97;7399139;19;20006;-79
2023/08/23 07:33:13;;;;;;;7.70;3.63;;;;;;;28.54;79.62;100237.13;7400376;19;20048;-79
2023/08/23 07:35:39;;;;;;;14.57;3.88;;;;;;;36.20;55.97;100225.03;7399790;19;20425;-80
2023/08/23 07:38:05;;;;;;;8.15;2.53;;;;;;;37.59;50.08;100217.22;7399364;19;21020;-79
2023/08/23 07:40:31;;;;;;;7.72;2.50;;;;;;;38.07;47.47;100225.22;7398674;19;20992;-79
2023/08/23 07:42:57;;;;;;;10.32;2.60;;;;;;;38.27;45.82;100231.16;7399445;19;20039;-79
2023/08/23 07:45:24;;;;;;;3.25;1.58;;;;;;;38.58;43.97;100223.00;7398600;19;20039;-79
2023/08/23 07:47:50;;;;;;;1.35;1.20;;;;;;;36.30;49.68;100216.84;7400180;19;20369;-79
2023/08/23 07:50:16;;;;;;;4.38;1.15;;;;;;;34.22;48.87;100219.88;7397296;19;20018;-79
2023/08/23 07:52:42;;;;;;;2.92;1.30;;;;;;;40.24;41.09;100214.72;7399074;19;20014;-79
2023/08/23 07:55:08;;;;;;;3.25;1.30;;;;;;;39.88;40.53;100200.34;7400020;19;20021;-79
2023/08/23 07:57:34;;;;;;;2.78;0.77;;;;;;;39.86;39.97;100211.94;7398295;19;20035;-79
2023/08/23 08:00:01;;;;;;;1.42;1.05;;;;;;;40.76;39.28;100211.34;7397226;19;20050;-79
2023/08/23 08:02:29;;;;;;;2.17;1.38;;;;;;;40.27;38.75;100208.25;7396430;19;20006;-79
2023/08/23 08:04:56;;;;;;;6.53;1.25;;;;;;;42.91;35.77;100196.09;7400271;19;20014;-79
2023/08/23 08:07:22;;;;;;;4.80;0.82;;;;;;;36.92;40.92;100193.81;7400566;19;20022;-79
2023/08/23 08:09:48;;;;;;;1.55;1.08;;;;;;;36.96;45.76;100193.25;7393716;19;20480;-79
2023/08/23 08:12:14;;;;;;;1.17;0.50;;;;;;;39.52;40.21;100190.28;7395062;19;20015;-79
2023/08/23 08:14:40;;;;;;;1.08;0.70;;;;;;;40.23;38.95;100201.53;7394570;19;20450;-79
2023/08/23 08:17:06;;;;;;;1.45;0.70;;;;;;;37.43;43.54;100216.50;7395874;19;20040;-79
2023/08/23 08:19:33;;;;;;;6.65;1.10;;;;;;;40.05;39.11;100211.16;7395343;19;20018;-79
2023/08/23 08:21:59;;;;;;;0.82;0.40;;;;;;;42.60;36.00;100217.34;7397161;19;20022;-79
2023/08/23 08:24:28;;;;;;;0.77;0.43;;;;;;;41.80;37.36;100226.91;7398133;19;20078;-79
2023/08/23 08:26:54;;;;;;;1.60;0.32;;;;;;;44.36;33.67;100222.47;7394550;19;20018;-80
2023/08/23 08:29:20;;;;;;;3.72;1.27;;;;;;;42.92;34.00;100226.91;7393069;19;20025;-79
2023/08/23 08:31:49;;;;;;;0.75;0.17;;;;;;;41.54;35.90;100233.47;7394351;19;20027;-79
2023/08/23 08:34:17;;;;;;;2.30;0.30;;;;;;;44.55;32.65;100244.13;7398390;19;20381;-79
2023/08/23 08:36:43;;;;;;;3.00;0.98;;;;;;;45.20;31.58;100234.09;7395405;19;20030;-79
2023/08/23 08:39:09;;;;;;;2.00;0.65;;;;;;;33.85;44.61;100256.66;7395219;19;20015;-79
2023/08/23 08:41:35;;;;;;;1.23;0.50;;;;;;;31.57;52.01;100248.81;7396054;19;20306;-79
2023/08/23 08:44:02;;;;;;;1.58;0.73;;;;;;;30.86;58.05;100240.88;7395622;19;20010;-79
2023/08/23 08:46:28;;;;;;;1.58;0.52;;;;;;;30.42;62.38;100237.56;7394661;19;20090;-79
2023/08/23 08:48:54;;;;;;;1.58;0.50;;;;;;;30.06;66.32;100224.06;7395164;19;20010;-80
2023/08/23 08:51:21;;;;;;;2.72;0.70;;;;;;;30.08;68.51;100218.50;7393182;19;20019;-80
2023/08/23 08:53:49;;;;;;;1.75;0.38;;;;;;;30.17;70.37;100229.22;7397446;19;20342;-79
2023/08/23 08:56:17;;;;;;;7.28;0.65;;;;;;;30.13;70.85;100233.91;7393702;19;20015;-79
2023/08/23 08:58:45;;;;;;;7.45;1.20;;;;;;;30.84;67.61;100237.06;7394492;19;20010;-80
2023/08/23 09:01:14;;;;;;;3.30;0.80;;;;;;;40.88;45.98;100227.78;7394507;19;20039;-80
2023/08/23 09:03:44;;;;;;;0.25;0.13;;;;;;;44.75;36.40;100215.00;7393136;19;20023;-79
2023/08/23 09:06:10;;;;;;;9.30;0.93;;;;;;;44.85;34.51;100211.50;7394575;19;20085;-79
2023/08/23 09:08:36;;;;;;;4.80;0.60;;;;;;;45.71;32.53;100215.59;7392564;19;20248;-79
2023/08/23 09:11:02;;;;;;;0.28;0.28;;;;;;;45.91;31.94;100217.25;7394089;19;20078;-79
2023/08/23 09:13:28;;;;;;;4.03;0.55;;;;;;;45.28;31.95;100213.59;7394902;19;20014;-80
2023/08/23 09:15:58;;;;;;;3.20;0.25;;;;;;;41.64;33.71;100223.50;7394515;19;20475;-80
2023/08/23 09:18:24;;;;;;;3.05;0.35;;;;;;;35.76;42.19;100229.25;7392123;19;20381;-80
2023/08/23 09:20:50;;;;;;;4.97;0.45;;;;;;;34.98;45.59;100228.59;7399161;19;20384;-79
2023/08/23 09:23:16;;;;;;;4.68;0.32;;;;;;;33.17;52.29;100224.25;7393580;19;20026;-79
2023/08/23 09:25:42;;;;;;;1.45;0.25;;;;;;;38.64;44.99;100217.44;7394301;19;20018;-79
2023/08/23 09:28:12;;;;;;;1.48;0.43;;;;;;;33.57;53.22;100214.47;7393385;19;20350;-80
2023/08/23 09:30:38;;;;;;;2.28;0.20;;;;;;;41.25;41.18;100204.88;7396174;19;20039;-79
2023/08/23 09:33:04;;;;;;;1.55;0.25;;;;;;;34.08;49.75;100206.75;7396189;19;20464;-79
2023/08/23 09:35:30;;;;;;;2.17;0.30;;;;;;;38.21;46.31;100205.41;7392575;19;20034;-79
2023/08/23 09:37:57;;;;;;;0.38;0.05;;;;;;;31.36;53.46;100209.19;7393306;19;20078;-79
2023/08/23 09:40:26;;;;;;;0.60;0.28;;;;;;;45.69;34.19;100194.97;7390871;19;20476;-80
2023/08/23 09:42:53;;;;;;;0.43;0.20;;;;;;;47.89;30.18;100205.25;7392885;19;20022;-79
2023/08/23 09:45:21;;;;;;;0.90;0.30;;;;;;;48.15;28.77;100193.47;7393895;19;20426;-80
2023/08/23 09:47:55;;;;;;;0.28;0.00;;;;;;;38.50;37.22;100213.94;7393425;19;20042;-79
2023/08/23 09:50:23;;;;;;;1.23;0.38;;;;;;;34.12;47.88;100212.75;7393948;19;20035;-80
2023/08/23 09:53:16;;;;;;;0.20;0.20;;;;;;;34.65;48.63;100207.91;7394876;19;20025;-80
2023/08/23 09:55:42;;;;;;;0.25;0.13;;;;;;;34.40;49.85;100205.75;7394039;19;20019;-79
2023/08/23 09:58:09;;;;;;;0.38;0.20;;;;;;;34.39;52.59;100210.03;7393645;19;20014;-79
2023/08/23 10:00:36;;;;;;;0.57;0.10;;;;;;;34.40;52.89;100217.31;7392233;19;20011;-80
2023/08/23 10:03:03;;;;;;;0.25;0.10;;;;;;;34.37;52.21;100209.16;7393362;19;20469;-79
2023/08/23 10:05:29;;;;;;;0.73;0.15;;;;;;;34.22;50.83;100202.53;7394035;19;20502;-80
2023/08/23 10:07:56;;;;;;;0.47;0.30;;;;;;;34.21;51.99;100209.72;7390663;19;20095;-79
2023/08/23 10:10:22;;;;;;;0.30;0.10;;;;;;;34.14;51.96;100207.84;7391640;19;20041;-79
2023/08/23 10:12:52;;;;;;;0.17;0.08;;;;;;;34.06;52.98;100201.59;7393730;19;20078;-79
2023/08/23 10:15:25;;;;;;;0.30;0.10;;;;;;;34.41;52.95;100206.50;7392807;19;20483;-79
2023/08/23 10:17:52;;;;;;;0.25;0.20;;;;;;;34.00;53.10;100180.97;7393197;19;20033;-79
2023/08/23 10:20:22;;;;;;;2.65;0.25;;;;;;;34.43;54.17;100189.25;7394778;19;20352;-79
2023/08/23 10:22:48;;;;;;;1.65;0.17;;;;;;;34.11;53.13;100185.25;7392300;19;20054;-79
2023/08/23 10:25:18;;;;;;;6.80;1.17;;;;;;;33.92;53.18;100183.38;7390944;19;20034;-80
2023/08/23 10:27:49;;;;;;;0.13;0.13;;;;;;;33.97;53.30;100184.38;7390582;19;20022;-79
2023/08/23 10:30:24;;;;;;;1.55;0.10;;;;;;;33.88;52.65;100179.50;7388221;19;20011;-80
2023/08/23 10:32:52;;;;;;;3.47;0.68;;;;;;;33.97;52.78;100182.25;7393275;19;20024;-79
2023/08/23 10:35:23;;;;;;;0.10;0.00;;;;;;;34.02;52.60;100184.03;7390940;19;20114;-80
2023/08/23 10:37:52;;;;;;;0.80;0.10;;;;;;;34.12;53.11;100178.81;7392086;19;20010;-79
2023/08/23 10:40:19;;;;;;;0.10;0.10;;;;;;;34.24;52.51;100173.72;7390418;19;20034;-79
2023/08/23 10:42:47;;;;;;;0.10;0.00;;;;;;;34.20;52.73;100175.63;7390780;19;20048;-80
2023/08/23 10:45:15;;;;;;;0.38;0.30;;;;;;;34.25;53.01;100177.38;7395284;19;20014;-80
2023/08/23 10:47:42;;;;;;;0.73;0.10;;;;;;;34.06;51.86;100178.47;7390399;19;20543;-80
2023/08/23 10:50:08;;;;;;;0.22;0.10;;;;;;;34.06;52.88;100169.81;7391747;19;20028;-80
2023/08/23 10:52:34;;;;;;;0.10;0.10;;;;;;;34.26;52.87;100179.63;7391454;19;20014;-80
2023/08/23 10:55:02;;;;;;;0.45;0.25;;;;;;;34.15;52.33;100180.47;7392992;19;20010;-80
2023/08/23 10:57:28;;;;;;;1.55;0.40;;;;;;;34.15;52.75;100168.13;7395152;19;20512;-81
2023/08/23 10:59:54;;;;;;;0.10;0.00;;;;;;;34.52;53.70;100163.06;7392025;19;20021;-81
2023/08/23 11:02:20;;;;;;;0.75;0.10;;;;;;;34.50;53.15;100167.97;7390658;19;20010;-82
2023/08/23 11:04:47;;;;;;;0.73;0.10;;;;;;;34.27;53.27;100175.38;7394945;19;20477;-82
2023/08/23 11:07:14;;;;;;;3.63;0.20;;;;;;;34.14;52.84;100173.16;7395712;19;20029;-81
2023/08/23 11:09:41;;;;;;;0.03;0.00;;;;;;;33.99;52.44;100167.91;7390239;19;20018;-83
2023/08/23 11:12:07;;;;;;;0.10;0.00;;;;;;;33.35;53.67;100164.00;7389109;19;20017;-82
2023/08/23 11:14:33;;;;;;;0.73;0.20;;;;;;;33.69;53.39;100169.00;7393502;19;20010;-82
2023/08/23 11:17:03;;;;;;;0.30;0.10;;;;;;;33.64;54.71;100167.25;7391568;19;20086;-83
2023/08/23 11:19:29;;;;;;;1.65;0.47;;;;;;;33.64;55.04;100161.47;7391552;19;20527;-82
2023/08/23 11:21:56;;;;;;;1.88;0.35;;;;;;;33.74;53.98;100162.09;7392092;19;20021;-81
2023/08/23 11:24:23;;;;;;;1.05;0.20;;;;;;;33.65;53.75;100162.22;7392506;19;20014;-81